Time;durP1;ratioP1;P1;durP2;ratioP2;P2;SDS_P1;SDS_P2;PMS_P1;PMS_P2;Temp;Humidity;BMP_temperature;BMP_pressure;BME280_temperature;BME280_humidity;BME280_pressure;Samples;Min_cycle;Max_cycle;Signal;HPM_P1;HPM_P2
2024/01/04 00:00:53;;;;;;;8.10;7.30;;;;;;;;;;6246058;23;20135;-95
2024/01/04 00:03:20;;;;;;;7.50;5.75;;;;;;;;;;6245976;22;20004;-95
2024/01/04 00:05:53;;;;;;;8.93;6.22;;;;;;;;;;6246378;23;20067;-94
2024/01/04 00:08:22;;;;;;;6.53;5.70;;;;;;;;;;6246845;23;20000;-95
2024/01/04 00:10:51;;;;;;;6.00;5.40;;;;;;;;;;6246433;23;20012;-95
2024/01/04 00:13:24;;;;;;;8.70;7.97;;;;;;;;;;6246346;23;20004;-95
2024/01/04 00:15:56;;;;;;;8.38;7.72;;;;;;;;;;6269860;22;20031;-95
2024/01/04 00:18:29;;;;;;;8.65;8.05;;;;;;;;;;6278556;22;20060;-93
2024/01/04 00:21:02;;;;;;;9.73;9.00;;;;;;;;;;6248771;22;20338;-94
2024/01/04 00:23:28;;;;;;;10.90;10.03;;;;;;;;;;6246456;23;20007;-94
2024/01/04 00:25:57;;;;;;;12.93;11.93;;;;;;;;;;6246325;23;20696;-92
2024/01/04 00:28:26;;;;;;;14.43;13.40;;;;;;;;;;6251136;23;19996;-94
2024/01/04 00:30:52;;;;;;;18.77;17.70;;;;;;;;;;6246885;23;20035;-93
2024/01/04 00:33:22;;;;;;;20.20;18.90;;;;;;;;;;6246055;23;20046;-93
2024/01/04 00:35:54;;;;;;;17.65;16.45;;;;;;;;;;6246261;23;20019;-94
2024/01/04 00:38:23;;;;;;;13.82;12.82;;;;;;;;;;6247119;23;20338;-94
2024/01/04 00:41:02;;;;;;;12.45;11.50;;;;;;;;;;6246177;23;20311;-94
2024/01/04 00:43:28;;;;;;;11.65;10.45;;;;;;;;;;6246010;23;20004;-94
2024/01/04 00:45:54;;;;;;;10.10;9.20;;;;;;;;;;6246481;23;20004;-93
2024/01/04 00:48:23;;;;;;;13.32;9.23;;;;;;;;;;6246157;23;20008;-95
2024/01/04 00:50:56;;;;;;;8.93;8.13;;;;;;;;;;6246018;23;20010;-93
2024/01/04 00:53:31;;;;;;;9.90;7.82;;;;;;;;;;6246574;23;20433;-95
2024/01/04 00:56:08;;;;;;;8.93;7.88;;;;;;;;;;6245849;23;20019;-93
2024/01/04 00:58:38;;;;;;;9.20;7.60;;;;;;;;;;6246892;23;20011;-94
2024/01/04 01:01:04;;;;;;;16.23;7.50;;;;;;;;;;6246474;23;20004;-95
2024/01/04 01:03:33;;;;;;;8.05;5.53;;;;;;;;;;6246105;23;20027;-95
2024/01/04 01:06:10;;;;;;;8.95;6.20;;;;;;;;;;6246308;23;20031;-95
2024/01/04 01:08:42;;;;;;;7.72;5.63;;;;;;;;;;6246279;23;20004;-94
2024/01/04 01:11:14;;;;;;;8.93;6.78;;;;;;;;;;6245843;23;20011;-94
2024/01/04 01:16:44;;;;;;;10.20;6.90;;;;;;;;;;6250033;23;20019;-95
2024/01/04 01:19:16;;;;;;;7.75;5.78;;;;;;;;;;6248184;23;20023;-95
2024/01/04 01:21:48;;;;;;;9.45;6.45;;;;;;;;;;6248439;23;20005;-95
2024/01/04 01:30:46;;;;;;;8.77;6.50;;;;;;;;;;6249552;23;20027;-95
2024/01/04 01:33:15;;;;;;;11.77;7.07;;;;;;;;;;6248373;23;20043;-94
2024/01/04 01:45:16;;;;;;;10.75;5.28;;;;;;;;;;6249923;23;20058;-95
2024/01/04 01:47:48;;;;;;;9.65;6.68;;;;;;;;;;6249066;23;20000;-95
2024/01/04 01:55:55;;;;;;;7.68;5.38;;;;;;;;;;6275368;22;20011;-93
2024/01/04 01:58:25;;;;;;;9.30;6.78;;;;;;;;;;6270508;22;20003;-94
2024/01/04 02:00:51;;;;;;;6.63;5.35;;;;;;;;;;6252779;22;20003;-93
2024/01/04 02:03:20;;;;;;;10.00;5.38;;;;;;;;;;6252830;22;20449;-94
2024/01/04 02:05:49;;;;;;;8.73;5.05;;;;;;;;;;6253186;22;20000;-95
2024/01/04 02:08:22;;;;;;;8.13;5.35;;;;;;;;;;6252917;22;20456;-95
2024/01/04 02:10:51;;;;;;;8.40;5.70;;;;;;;;;;6251797;22;20000;-94
2024/01/04 02:13:20;;;;;;;8.65;5.03;;;;;;;;;;6252898;22;20014;-94
2024/01/04 02:16:04;;;;;;;8.07;6.25;;;;;;;;;;6252342;22;20011;-93
2024/01/04 02:18:43;;;;;;;10.77;5.53;;;;;;;;;;6253803;22;20329;-94
2024/01/04 02:21:12;;;;;;;6.85;4.85;;;;;;;;;;6253009;22;20007;-93
2024/01/04 02:23:38;;;;;;;8.48;5.45;;;;;;;;;;6253004;22;20004;-95
2024/01/04 02:26:04;;;;;;;6.38;5.57;;;;;;;;;;6252613;22;20010;-94
2024/01/04 02:28:34;;;;;;;9.77;6.22;;;;;;;;;;6255152;22;20107;-94
2024/01/04 02:31:03;;;;;;;6.55;5.00;;;;;;;;;;6253878;22;20493;-94
2024/01/04 02:33:32;;;;;;;6.75;6.03;;;;;;;;;;6253941;22;20059;-94
2024/01/04 02:36:01;;;;;;;6.50;5.32;;;;;;;;;;6254450;22;20016;-94
2024/01/04 02:38:30;;;;;;;6.78;6.28;;;;;;;;;;6254162;22;20039;-94
2024/01/04 02:40:56;;;;;;;7.85;7.25;;;;;;;;;;6229711;22;20003;-94
2024/01/04 02:43:25;;;;;;;8.40;7.55;;;;;;;;;;6253930;22;20046;-95
2024/01/04 02:45:55;;;;;;;10.07;8.60;;;;;;;;;;6253717;22;20004;-94
2024/01/04 02:48:37;;;;;;;9.27;8.55;;;;;;;;;;6252963;22;20003;-94
2024/01/04 02:51:03;;;;;;;8.32;7.60;;;;;;;;;;6255227;22;20086;-94
2024/01/04 02:53:32;;;;;;;9.50;8.80;;;;;;;;;;6253793;22;20027;-94
2024/01/04 02:55:59;;;;;;;10.52;9.93;;;;;;;;;;6211582;23;20025;-94
2024/01/04 02:58:29;;;;;;;14.00;13.13;;;;;;;;;;6222751;23;20100;-94
2024/01/04 03:01:06;;;;;;;15.75;14.82;;;;;;;;;;6222385;23;20030;-93
2024/01/04 03:03:32;;;;;;;21.63;20.35;;;;;;;;;;6221933;23;20011;-95
2024/01/04 03:06:04;;;;;;;12.50;11.60;;;;;;;;;;6222084;23;20015;-94
2024/01/04 03:08:30;;;;;;;21.50;20.20;;;;;;;;;;6222738;23;20334;-94
2024/01/04 03:11:02;;;;;;;20.40;19.30;;;;;;;;;;6222072;23;20011;-93
2024/01/04 03:13:28;;;;;;;14.85;14.00;;;;;;;;;;6221612;23;20028;-95
2024/01/04 03:15:58;;;;;;;19.67;18.60;;;;;;;;;;6222182;23;20104;-94
2024/01/04 03:18:34;;;;;;;14.05;13.25;;;;;;;;;;6221975;23;20050;-94
2024/01/04 03:21:03;;;;;;;18.17;17.17;;;;;;;;;;6213917;23;20012;-94
2024/01/04 03:23:38;;;;;;;15.20;14.27;;;;;;;;;;6223111;23;20385;-94
2024/01/04 03:26:05;;;;;;;24.15;22.75;;;;;;;;;;6223063;23;20080;-94
2024/01/04 03:28:34;;;;;;;16.65;15.68;;;;;;;;;;6222929;23;20004;-94
2024/01/04 03:31:03;;;;;;;18.73;17.63;;;;;;;;;;6222336;23;20008;-94
2024/01/04 03:33:29;;;;;;;20.13;18.95;;;;;;;;;;6222876;23;20162;-94
2024/01/04 03:36:25;;;;;;;26.10;24.70;;;;;;;;;;6228101;22;20039;-93
2024/01/04 03:38:55;;;;;;;31.73;30.00;;;;;;;;;;6188481;22;20020;-91
2024/01/04 03:41:25;;;;;;;19.90;18.55;;;;;;;;;;6243460;22;20028;-94
2024/01/04 03:43:57;;;;;;;30.88;29.27;;;;;;;;;;6246952;23;20004;-93
2024/01/04 03:46:26;;;;;;;25.88;24.38;;;;;;;;;;6246720;23;20007;-94
2024/01/04 03:48:52;;;;;;;25.70;24.33;;;;;;;;;;6246720;23;20011;-94
2024/01/04 03:51:24;;;;;;;18.05;16.95;;;;;;;;;;6246986;23;20083;-94
2024/01/04 03:53:58;;;;;;;27.50;26.00;;;;;;;;;;6248267;23;20027;-94
2024/01/04 03:56:28;;;;;;;33.83;31.92;;;;;;;;;;6229513;23;20099;-94
2024/01/04 03:59:00;;;;;;;36.13;34.10;;;;;;;;;;6246824;23;20042;-94
2024/01/04 04:01:27;;;;;;;30.70;29.03;;;;;;;;;;6248181;23;20024;-94
2024/01/04 04:03:59;;;;;;;28.25;26.67;;;;;;;;;;6246878;23;20000;-94
2024/01/04 04:06:31;;;;;;;32.75;31.00;;;;;;;;;;6247877;23;20008;-94
2024/01/04 04:09:09;;;;;;;27.63;26.13;;;;;;;;;;6246442;23;20008;-94
2024/01/04 04:11:38;;;;;;;33.25;31.50;;;;;;;;;;6247645;23;20434;-94
2024/01/04 04:14:12;;;;;;;29.17;27.60;;;;;;;;;;6246936;23;20027;-94
2024/01/04 04:16:45;;;;;;;34.78;32.90;;;;;;;;;;6247437;23;20020;-95
2024/01/04 04:19:18;;;;;;;33.22;31.42;;;;;;;;;;6222911;23;20051;-94
2024/01/04 04:21:44;;;;;;;36.30;34.35;;;;;;;;;;6246934;23;20376;-95
2024/01/04 04:24:17;;;;;;;26.90;25.45;;;;;;;;;;6246587;23;20334;-94
2024/01/04 04:26:55;;;;;;;35.13;33.23;;;;;;;;;;6229615;23;20087;-94
2024/01/04 04:29:24;;;;;;;31.02;29.42;;;;;;;;;;6246538;23;20083;-93
2024/01/04 04:31:57;;;;;;;38.05;35.95;;;;;;;;;;6246750;23;20012;-94
2024/01/04 04:34:23;;;;;;;39.00;36.97;;;;;;;;;;6246650;23;20004;-94
2024/01/04 04:36:55;;;;;;;32.03;30.27;;;;;;;;;;6246624;23;20005;-94
2024/01/04 04:39:24;;;;;;;27.98;26.33;;;;;;;;;;6247003;23;20028;-94
2024/01/04 04:41:54;;;;;;;34.03;32.00;;;;;;;;;;6245421;23;20027;-94
2024/01/04 04:44:26;;;;;;;30.70;29.10;;;;;;;;;;6246971;23;20005;-94
2024/01/04 04:46:58;;;;;;;21.25;20.13;;;;;;;;;;6246181;23;20012;-94
2024/01/04 04:49:25;;;;;;;37.03;35.03;;;;;;;;;;6251365;22;20030;-94
2024/01/04 04:51:57;;;;;;;30.85;29.25;;;;;;;;;;6251534;22;20011;-94
2024/01/04 04:54:26;;;;;;;28.65;27.10;;;;;;;;;;6254109;22;20005;-92
2024/01/04 04:57:00;;;;;;;27.70;26.17;;;;;;;;;;6255717;22;20020;-94
2024/01/04 04:59:27;;;;;;;30.70;29.02;;;;;;;;;;6278323;22;20027;-95
2024/01/04 05:01:53;;;;;;;21.67;20.52;;;;;;;;;;6251889;22;20007;-91
2024/01/04 05:04:25;;;;;;;27.58;26.00;;;;;;;;;;6251085;22;20003;-95
2024/01/04 05:06:52;;;;;;;19.67;18.58;;;;;;;;;;6251757;22;20083;-94
2024/01/04 05:09:18;;;;;;;23.35;22.15;;;;;;;;;;6252148;22;20004;-95
2024/01/04 05:11:51;;;;;;;19.10;18.10;;;;;;;;;;6279396;22;20067;-94
2024/01/04 05:14:21;;;;;;;23.95;22.65;;;;;;;;;;6252093;22;20008;-94
2024/01/04 05:16:52;;;;;;;22.85;21.65;;;;;;;;;;6263060;22;20007;-93
2024/01/04 05:21:53;;;;;;;27.48;25.95;;;;;;;;;;6320510;22;20094;-93
2024/01/04 05:24:23;;;;;;;15.63;14.80;;;;;;;;;;6281932;22;20007;-94
2024/01/04 05:26:52;;;;;;;18.13;17.10;;;;;;;;;;6281964;22;19999;-94
2024/01/04 05:29:33;;;;;;;23.40;22.15;;;;;;;;;;6282589;22;20007;-94
2024/01/04 05:32:01;;;;;;;19.73;18.73;;;;;;;;;;6282371;22;20003;-94
2024/01/04 05:34:32;;;;;;;17.98;16.88;;;;;;;;;;6282112;22;20328;-94
2024/01/04 05:36:59;;;;;;;15.95;15.10;;;;;;;;;;6308936;22;20474;-94
2024/01/04 05:39:31;;;;;;;13.73;12.93;;;;;;;;;;6282196;22;20003;-94
2024/01/04 05:41:57;;;;;;;16.45;15.57;;;;;;;;;;6281621;22;20003;-93
2024/01/04 05:44:24;;;;;;;17.65;16.67;;;;;;;;;;6281840;22;20003;-93
2024/01/04 05:46:56;;;;;;;9.93;9.32;;;;;;;;;;6282081;22;20425;-93
2024/01/04 05:49:25;;;;;;;11.45;10.50;;;;;;;;;;6281850;22;20000;-94
2024/01/04 05:51:54;;;;;;;12.15;11.45;;;;;;;;;;6282183;22;20023;-93
2024/01/04 06:00:30;;;;;;;29.88;28.20;;;;;;;;;;6309593;22;20006;-94
2024/01/04 06:03:00;;;;;;;18.27;17.23;;;;;;;;;;6306278;22;20053;-93
2024/01/04 06:05:27;;;;;;;13.73;12.93;;;;;;;;;;6283682;22;20006;-94
2024/01/04 06:07:53;;;;;;;23.75;22.33;;;;;;;;;;6283436;22;20010;-94
2024/01/04 06:10:25;;;;;;;13.93;13.07;;;;;;;;;;6283607;22;19999;-93
2024/01/04 06:12:54;;;;;;;18.73;17.60;;;;;;;;;;6283555;22;20031;-94
2024/01/04 06:15:26;;;;;;;14.15;13.30;;;;;;;;;;6283596;22;20015;-94
2024/01/04 06:18:14;;;;;;;22.80;21.45;;;;;;;;;;6283848;22;20384;-93
2024/01/04 06:20:40;;;;;;;23.15;21.90;;;;;;;;;;6294949;22;20496;-94
2024/01/04 06:23:16;;;;;;;21.35;20.05;;;;;;;;;;6309732;22;20056;-93
2024/01/04 06:25:42;;;;;;;24.77;23.40;;;;;;;;;;6311870;22;20006;-94
2024/01/04 06:28:11;;;;;;;28.50;27.00;;;;;;;;;;6309018;22;20003;-92
2024/01/04 06:30:37;;;;;;;27.05;25.48;;;;;;;;;;6309448;22;20035;-95
2024/01/04 06:33:07;;;;;;;23.08;21.75;;;;;;;;;;6309379;22;20086;-94
2024/01/04 06:35:33;;;;;;;21.02;19.73;;;;;;;;;;6309327;22;20065;-95
2024/01/04 06:38:07;;;;;;;13.13;12.32;;;;;;;;;;6308827;22;19999;-95
2024/01/04 06:40:40;;;;;;;22.80;21.60;;;;;;;;;;6310648;22;20007;-95
2024/01/04 06:43:10;;;;;;;18.85;17.85;;;;;;;;;;6309364;22;20480;-95
2024/01/04 06:45:40;;;;;;;20.13;19.02;;;;;;;;;;6310016;22;20015;-94
2024/01/04 06:48:08;;;;;;;18.15;17.08;;;;;;;;;;6309992;22;20008;-95
2024/01/04 06:50:34;;;;;;;17.50;16.55;;;;;;;;;;6309116;22;20000;-95
2024/01/04 06:53:07;;;;;;;32.13;30.40;;;;;;;;;;6309962;22;20455;-94
2024/01/04 06:55:38;;;;;;;36.22;34.35;;;;;;;;;;6309516;22;20094;-94
2024/01/04 06:58:11;;;;;;;30.02;28.45;;;;;;;;;;6322232;22;19996;-93
2024/01/04 07:00:43;;;;;;;27.30;25.85;;;;;;;;;;6336395;22;20055;-92
2024/01/04 07:03:19;;;;;;;33.40;31.50;;;;;;;;;;6276424;22;20024;-94
2024/01/04 07:05:49;;;;;;;32.03;30.35;;;;;;;;;;6247411;23;20079;-94
2024/01/04 07:08:24;;;;;;;31.80;30.05;;;;;;;;;;6247406;23;20016;-95
2024/01/04 07:11:02;;;;;;;27.27;25.77;;;;;;;;;;6246985;23;20000;-95
2024/01/04 07:13:34;;;;;;;33.50;31.70;;;;;;;;;;6247644;23;20004;-94
2024/01/04 07:16:06;;;;;;;40.05;38.00;;;;;;;;;;6246803;23;20023;-94
2024/01/04 07:18:39;;;;;;;33.97;32.17;;;;;;;;;;6247380;23;20003;-94
2024/01/04 07:21:13;;;;;;;44.65;42.22;;;;;;;;;;6247428;23;20509;-94
2024/01/04 07:23:42;;;;;;;40.72;38.47;;;;;;;;;;6252369;22;20012;-94
2024/01/04 07:26:11;;;;;;;43.60;41.10;;;;;;;;;;6252116;22;20029;-95
2024/01/04 07:29:01;;;;;;;41.47;38.92;;;;;;;;;;6251950;22;20007;-94
2024/01/04 07:31:31;;;;;;;39.50;37.40;;;;;;;;;;6196594;22;20007;-94
2024/01/04 07:34:03;;;;;;;35.95;34.00;;;;;;;;;;6252200;22;20333;-93
2024/01/04 07:36:36;;;;;;;44.03;41.58;;;;;;;;;;6251966;22;20020;-95
2024/01/04 07:39:18;;;;;;;40.42;38.15;;;;;;;;;;6251885;22;20014;-94
2024/01/04 07:41:47;;;;;;;41.35;38.92;;;;;;;;;;6252051;22;20006;-94
2024/01/04 07:44:19;;;;;;;40.42;38.22;;;;;;;;;;6252090;22;20015;-94
2024/01/04 07:46:52;;;;;;;38.20;36.13;;;;;;;;;;6252074;22;20000;-93
2024/01/04 07:49:34;;;;;;;42.88;40.65;;;;;;;;;;6251956;22;20011;-94
2024/01/04 07:52:06;;;;;;;47.83;45.17;;;;;;;;;;6251509;22;20004;-95
2024/01/04 07:54:35;;;;;;;45.70;43.28;;;;;;;;;;6251585;22;20003;-95
2024/01/04 07:57:36;;;;;;;38.47;36.47;;;;;;;;;;6251768;22;20314;-93
2024/01/04 08:00:09;;;;;;;40.47;38.15;;;;;;;;;;6251465;22;20008;-93
2024/01/04 08:02:47;;;;;;;41.83;39.63;;;;;;;;;;6246315;23;20041;-95
2024/01/04 08:05:13;;;;;;;42.88;40.47;;;;;;;;;;6221894;23;20000;-96
2024/01/04 08:07:40;;;;;;;36.28;34.20;;;;;;;;;;6221274;23;20030;-96
2024/01/04 08:10:08;;;;;;;43.90;41.53;;;;;;;;;;6220813;23;20015;-95
2024/01/04 08:12:46;;;;;;;32.35;30.60;;;;;;;;;;6220621;23;20000;-93
2024/01/04 08:15:18;;;;;;;31.40;29.73;;;;;;;;;;6222551;23;20091;-91
2024/01/04 08:17:50;;;;;;;38.05;36.00;;;;;;;;;;6225118;23;20011;-96
2024/01/04 08:20:35;;;;;;;40.40;38.20;;;;;;;;;;6249809;23;20010;-96
2024/01/04 08:23:01;;;;;;;34.85;32.97;;;;;;;;;;6223606;23;20000;-95
2024/01/04 08:25:34;;;;;;;34.65;32.85;;;;;;;;;;6222654;23;20062;-96
2024/01/04 08:28:03;;;;;;;31.45;29.48;;;;;;;;;;6223419;23;20000;-96
2024/01/04 08:30:32;;;;;;;26.40;24.95;;;;;;;;;;6225971;22;20032;-96
2024/01/04 08:33:01;;;;;;;29.45;27.77;;;;;;;;;;6222332;23;20004;-95
2024/01/04 08:35:37;;;;;;;23.55;22.30;;;;;;;;;;6222304;23;20047;-94
2024/01/04 08:38:04;;;;;;;25.35;23.95;;;;;;;;;;6226174;23;20000;-95
2024/01/04 08:40:45;;;;;;;24.63;23.33;;;;;;;;;;6244810;22;20008;-95
2024/01/04 08:54:02;;;;;;;39.45;37.45;;;;;;;;;;6354110;22;20103;-96
2024/01/04 08:56:29;;;;;;;27.08;25.58;;;;;;;;;;6319804;22;20011;-95
2024/01/04 08:59:33;;;;;;;25.80;24.33;;;;;;;;;;6325083;22;19987;-96
2024/01/04 09:02:00;;;;;;;25.55;24.15;;;;;;;;;;6321595;22;20384;-96
2024/01/04 09:04:26;;;;;;;21.10;19.80;;;;;;;;;;6316388;22;20003;-92
2024/01/04 09:06:52;;;;;;;21.05;19.85;;;;;;;;;;6315555;22;20268;-95
2024/01/04 09:09:21;;;;;;;16.80;15.88;;;;;;;;;;6316959;22;20026;-96
2024/01/04 09:11:49;;;;;;;17.20;16.17;;;;;;;;;;6316811;22;20006;-96
2024/01/04 09:14:16;;;;;;;17.90;16.77;;;;;;;;;;6318790;22;20006;-94
2024/01/04 09:16:43;;;;;;;24.35;22.95;;;;;;;;;;6313319;22;20375;-95
2024/01/04 09:19:20;;;;;;;21.73;20.48;;;;;;;;;;6315304;22;19998;-95
2024/01/04 09:21:47;;;;;;;20.58;19.23;;;;;;;;;;6313593;22;20428;-93
2024/01/04 09:24:14;;;;;;;23.15;21.83;;;;;;;;;;6313937;22;19999;-95
2024/01/04 09:26:42;;;;;;;17.60;16.42;;;;;;;;;;6316770;22;20003;-95
2024/01/04 09:29:12;;;;;;;21.10;19.42;;;;;;;;;;6291585;22;20031;-96
2024/01/04 09:32:01;;;;;;;23.27;22.00;;;;;;;;;;6342195;22;20010;-95
2024/01/04 09:34:27;;;;;;;19.88;18.77;;;;;;;;;;6314889;22;20082;-95
2024/01/04 09:36:57;;;;;;;14.80;13.75;;;;;;;;;;6315904;22;20018;-94
2024/01/04 09:39:26;;;;;;;11.45;10.85;;;;;;;;;;6317870;22;20003;-94
2024/01/04 09:41:56;;;;;;;14.20;13.40;;;;;;;;;;6318971;22;20010;-95
2024/01/04 09:44:24;;;;;;;12.77;12.05;;;;;;;;;;6293455;22;20060;-96
2024/01/04 09:47:11;;;;;;;15.88;15.02;;;;;;;;;;6343826;22;20414;-95
2024/01/04 09:49:38;;;;;;;11.57;10.70;;;;;;;;;;6318297;22;19998;-95
2024/01/04 09:52:14;;;;;;;13.20;12.20;;;;;;;;;;6318768;22;20463;-92
2024/01/04 09:54:43;;;;;;;8.63;8.10;;;;;;;;;;6320837;22;20007;-95
2024/01/04 09:57:14;;;;;;;11.82;11.13;;;;;;;;;;6292720;22;20037;-95
2024/01/04 09:59:56;;;;;;;;;;;;;;;;;;;;;
2024/01/04 10:05:18;;;;;;;12.65;11.68;;;;;;;;;;6317807;22;20021;-95
2024/01/04 10:08:10;;;;;;;11.57;10.80;;;;;;;;;;6322916;22;20017;-96
2024/01/04 10:10:40;;;;;;;17.25;16.02;;;;;;;;;;6317048;22;20003;-96
2024/01/04 10:13:20;;;;;;;17.08;16.02;;;;;;;;;;6316281;22;20009;-96
2024/01/04 10:16:05;;;;;;;22.17;20.98;;;;;;;;;;6314109;22;20015;-95
2024/01/04 10:18:43;;;;;;;16.33;15.23;;;;;;;;;;6317056;22;20026;-96
2024/01/04 10:21:10;;;;;;;14.20;13.40;;;;;;;;;;6320324;22;20007;-95
2024/01/04 10:23:37;;;;;;;10.25;9.70;;;;;;;;;;6366662;22;20002;-94
2024/01/04 10:26:13;;;;;;;12.77;12.05;;;;;;;;;;6311257;22;20011;-95
2024/01/04 10:29:01;;;;;;;12.10;11.45;;;;;;;;;;6343786;22;20053;-95
2024/01/04 10:31:31;;;;;;;11.05;10.45;;;;;;;;;;6339032;22;20485;-94
2024/01/04 10:34:18;;;;;;;12.35;11.50;;;;;;;;;;6315789;22;20010;-96
2024/01/04 10:36:47;;;;;;;13.88;13.02;;;;;;;;;;6315851;22;20011;-96
2024/01/04 10:39:19;;;;;;;9.75;9.15;;;;;;;;;;6343765;22;20009;-96
2024/01/04 10:42:07;;;;;;;11.93;11.23;;;;;;;;;;6317708;22;20504;-96
2024/01/04 10:44:39;;;;;;;12.07;11.38;;;;;;;;;;6343147;22;20439;-96
2024/01/04 10:47:14;;;;;;;14.15;13.15;;;;;;;;;;6344906;22;19998;-96
2024/01/04 10:49:46;;;;;;;11.00;10.27;;;;;;;;;;6317637;22;20003;-94
2024/01/04 10:52:27;;;;;;;9.73;8.82;;;;;;;;;;6284307;22;20098;-96
2024/01/04 10:54:54;;;;;;;6.22;5.82;;;;;;;;;;6285757;22;20003;-96
2024/01/04 10:57:25;;;;;;;9.88;9.30;;;;;;;;;;6286640;22;20008;-94
2024/01/04 10:59:52;;;;;;;9.57;8.98;;;;;;;;;;6286409;22;20003;-96
2024/01/04 11:02:18;;;;;;;11.23;8.50;;;;;;;;;;6259954;22;20011;-94
2024/01/04 11:04:53;;;;;;;8.85;8.18;;;;;;;;;;6284894;22;20010;-95
2024/01/04 11:07:20;;;;;;;10.07;9.48;;;;;;;;;;6310643;22;20003;-95
2024/01/04 11:09:56;;;;;;;10.30;9.63;;;;;;;;;;6285477;22;20014;-94
2024/01/04 11:12:25;;;;;;;12.82;11.40;;;;;;;;;;6286062;22;20007;-95
2024/01/04 11:14:52;;;;;;;11.48;10.60;;;;;;;;;;6259321;22;20387;-94
2024/01/04 11:17:26;;;;;;;14.38;13.45;;;;;;;;;;6288104;22;20417;-95
2024/01/04 11:19:59;;;;;;;11.15;10.43;;;;;;;;;;6313821;22;20432;-94
2024/01/04 11:22:57;;;;;;;;;;;;;;;;;;;;;
2024/01/04 11:25:45;;;;;;;10.45;9.80;;;;;;;;;;6299373;22;20023;-92
2024/01/04 13:21:24;;;;;;;;;;;;;;;;;;;;;
2024/01/04 13:30:37;;;;;;;22.35;21.15;;;;;;;;;;6282401;22;20042;-96
2024/01/04 13:33:32;;;;;;;;;;;;;;;;;;;;;
2024/01/04 13:38:49;;;;;;;30.17;28.45;;;;;;;;;;6301558;22;20038;-96
2024/01/04 13:41:18;;;;;;;24.23;22.88;;;;;;;;;;6249648;22;20109;-96
2024/01/04 13:57:42;;;;;;;14.57;13.77;;;;;;;;;;6130062;23;19915;-96
2024/01/04 14:00:08;;;;;;;25.42;24.02;;;;;;;;;;6159065;23;20477;-96
2024/01/04 14:02:35;;;;;;;24.85;23.25;;;;;;;;;;6166270;23;20075;-96
2024/01/04 14:05:04;;;;;;;30.00;28.38;;;;;;;;;;6163489;23;20510;-96
2024/01/04 14:07:30;;;;;;;26.10;24.73;;;;;;;;;;6164002;23;20017;-95
2024/01/04 14:10:10;;;;;;;22.92;21.73;;;;;;;;;;6220192;23;20015;-96
2024/01/04 14:17:48;;;;;;;21.45;20.30;;;;;;;;;;6283092;22;20337;-96
2024/01/04 14:20:14;;;;;;;25.75;24.30;;;;;;;;;;6282346;22;20007;-96
2024/01/04 14:22:41;;;;;;;31.05;29.33;;;;;;;;;;6281493;22;20061;-96
2024/01/04 14:25:09;;;;;;;28.40;26.92;;;;;;;;;;6278119;22;20057;-96
2024/01/04 14:27:39;;;;;;;34.05;32.28;;;;;;;;;;6280236;22;20057;-96
2024/01/04 14:30:25;;;;;;;26.70;25.15;;;;;;;;;;6280550;22;20008;-96
2024/01/04 14:32:54;;;;;;;25.15;23.77;;;;;;;;;;6259369;22;20023;-96
2024/01/04 14:36:16;;;;;;;;;;;;;;;;;;;;;
2024/01/04 14:44:27;;;;;;;;;;;;;;;;;;;;;
2024/01/04 14:49:45;;;;;;;;;;;;;;;;;;;;;
2024/01/04 15:25:06;;;;;;;17.90;16.77;;;;;;;;;;6255031;23;20061;-96
2024/01/04 15:27:32;;;;;;;23.10;21.80;;;;;;;;;;6249246;23;20010;-95
2024/01/04 15:29:58;;;;;;;24.92;23.48;;;;;;;;;;6257001;22;20008;-96
2024/01/04 15:32:24;;;;;;;28.02;26.52;;;;;;;;;;6273886;22;19992;-94
2024/01/04 15:34:57;;;;;;;20.83;19.65;;;;;;;;;;6263704;22;20016;-96
2024/01/04 15:37:30;;;;;;;18.17;17.13;;;;;;;;;;6248152;23;20012;-96
2024/01/04 15:39:56;;;;;;;16.77;15.88;;;;;;;;;;6222514;23;20008;-96
2024/01/04 15:42:22;;;;;;;16.65;15.65;;;;;;;;;;6246806;23;20019;-96
2024/01/04 15:44:48;;;;;;;14.00;13.10;;;;;;;;;;6246886;23;20079;-96
2024/01/04 15:47:15;;;;;;;12.95;11.98;;;;;;;;;;6247108;23;20008;-95
2024/01/04 15:49:42;;;;;;;10.88;10.20;;;;;;;;;;6247160;23;20000;-95
2024/01/04 15:52:08;;;;;;;13.35;12.45;;;;;;;;;;6247974;23;20008;-96
2024/01/04 15:57:38;;;;;;;8.15;7.65;;;;;;;;;;6249008;23;20027;-95
2024/01/04 16:00:05;;;;;;;8.65;8.15;;;;;;;;;;6248010;23;20008;-96
2024/01/04 16:02:39;;;;;;;10.07;9.45;;;;;;;;;;6246768;23;20004;-96
2024/01/04 16:05:25;;;;;;;11.27;10.65;;;;;;;;;;6223118;23;20081;-96
2024/01/04 16:07:51;;;;;;;12.20;11.50;;;;;;;;;;6246495;23;20127;-93
2024/01/04 16:10:17;;;;;;;10.30;9.48;;;;;;;;;;6246382;23;20426;-92
2024/01/04 16:12:51;;;;;;;11.80;11.10;;;;;;;;;;6246177;23;20011;-90
2024/01/04 16:15:18;;;;;;;11.35;10.65;;;;;;;;;;6246048;23;20066;-90
2024/01/04 16:18:02;;;;;;;12.02;11.30;;;;;;;;;;6246330;23;20039;-92
2024/01/04 16:20:34;;;;;;;10.18;9.45;;;;;;;;;;6245883;23;20012;-91
2024/01/04 16:23:09;;;;;;;12.55;11.82;;;;;;;;;;6246336;23;20310;-94
2024/01/04 16:25:35;;;;;;;8.13;7.63;;;;;;;;;;6245997;23;20015;-91
2024/01/04 16:28:02;;;;;;;12.20;11.40;;;;;;;;;;6246606;23;20028;-94
2024/01/04 16:30:44;;;;;;;14.88;13.90;;;;;;;;;;6246241;23;20037;-91
2024/01/04 16:33:10;;;;;;;8.93;8.35;;;;;;;;;;6247081;23;20004;-93
2024/01/04 16:35:38;;;;;;;13.82;13.02;;;;;;;;;;6245218;23;20038;-91
2024/01/04 16:38:05;;;;;;;14.70;13.70;;;;;;;;;;6245985;23;20004;-94
2024/01/04 16:40:31;;;;;;;12.82;12.05;;;;;;;;;;6246375;23;20011;-90
2024/01/04 16:42:58;;;;;;;16.30;15.35;;;;;;;;;;6245673;23;20012;-93
2024/01/04 16:45:24;;;;;;;11.98;11.18;;;;;;;;;;6246570;23;20315;-93
2024/01/04 16:48:03;;;;;;;11.55;10.85;;;;;;;;;;6249297;23;20011;-96
2024/01/04 16:53:37;;;;;;;9.88;9.25;;;;;;;;;;6267883;22;20050;-94
2024/01/04 16:56:03;;;;;;;12.48;11.75;;;;;;;;;;6242845;22;20315;-92
2024/01/04 16:58:32;;;;;;;10.25;9.55;;;;;;;;;;6251421;22;20075;-94
2024/01/04 17:00:58;;;;;;;12.77;12.07;;;;;;;;;;6251261;22;20042;-92
2024/01/04 17:12:56;;;;;;;11.85;11.18;;;;;;;;;;6154333;23;20507;-93
2024/01/04 17:15:31;;;;;;;10.45;9.52;;;;;;;;;;6125068;23;20010;-92
2024/01/04 17:18:06;;;;;;;12.38;11.57;;;;;;;;;;6130593;23;20822;-94
2024/01/04 17:20:32;;;;;;;10.95;10.35;;;;;;;;;;6129539;23;20037;-93
2024/01/04 17:22:58;;;;;;;15.45;14.43;;;;;;;;;;6169432;22;20004;-93
2024/01/04 17:25:38;;;;;;;14.73;13.93;;;;;;;;;;6250995;22;20015;-96
2024/01/04 17:28:13;;;;;;;12.88;12.02;;;;;;;;;;6252891;22;20004;-93
2024/01/04 17:30:39;;;;;;;10.23;9.52;;;;;;;;;;6261430;22;20083;-91
2024/01/04 17:33:05;;;;;;;13.88;13.02;;;;;;;;;;6250730;22;20004;-93
2024/01/04 17:35:32;;;;;;;15.10;14.20;;;;;;;;;;6250046;22;20022;-93
2024/01/04 17:38:04;;;;;;;15.05;14.05;;;;;;;;;;6251101;22;20004;-94
2024/01/04 17:40:35;;;;;;;9.90;9.30;;;;;;;;;;6249638;22;20034;-92
2024/01/04 17:43:03;;;;;;;12.05;11.35;;;;;;;;;;6250567;22;20023;-95
2024/01/04 17:45:29;;;;;;;12.20;11.27;;;;;;;;;;6251799;22;20448;-93
2024/01/04 17:47:55;;;;;;;8.98;8.32;;;;;;;;;;6251658;22;20127;-94
2024/01/04 17:50:27;;;;;;;15.55;14.60;;;;;;;;;;6251470;22;20008;-93
2024/01/04 17:53:09;;;;;;;12.52;11.77;;;;;;;;;;6246420;22;20058;-93
2024/01/04 17:55:38;;;;;;;13.20;12.40;;;;;;;;;;6234468;22;20016;-93
2024/01/04 17:58:04;;;;;;;11.48;10.68;;;;;;;;;;6248037;22;20004;-93
2024/01/04 18:01:06;;;;;;;13.23;12.40;;;;;;;;;;6231620;23;20008;-92
2024/01/04 18:03:32;;;;;;;9.85;9.25;;;;;;;;;;6073210;23;20102;-93
2024/01/04 18:06:05;;;;;;;14.10;13.15;;;;;;;;;;6192533;23;20004;-94
2024/01/04 18:08:31;;;;;;;11.38;10.68;;;;;;;;;;6222869;23;20004;-89
2024/01/04 18:17:35;;;;;;;11.45;10.68;;;;;;;;;;6112065;23;20038;-94
2024/01/04 18:20:19;;;;;;;11.88;11.07;;;;;;;;;;6222348;23;20503;-95
2024/01/04 18:23:03;;;;;;;13.27;12.38;;;;;;;;;;6223169;23;20004;-92
2024/01/04 18:28:22;;;;;;;13.98;13.18;;;;;;;;;;6223356;23;19909;-93
2024/01/04 18:30:58;;;;;;;10.38;9.68;;;;;;;;;;6198062;23;20019;-92
2024/01/04 18:33:27;;;;;;;13.57;12.73;;;;;;;;;;6222509;23;20004;-92
2024/01/04 18:36:07;;;;;;;;;;;;;;;;;;;;;
2024/01/04 18:38:38;;;;;;;12.32;11.50;;;;;;;;;;6249388;23;20088;-93
2024/01/04 18:41:26;;;;;;;13.32;12.50;;;;;;;;;;6247198;23;20015;-92
2024/01/04 18:44:24;;;;;;;12.25;11.35;;;;;;;;;;5112335;27;20127;-93
2024/01/04 18:46:50;;;;;;;12.45;11.63;;;;;;;;;;5110742;28;20030;-92
2024/01/04 18:49:16;;;;;;;11.15;10.50;;;;;;;;;;5110519;28;20050;-92
2024/01/04 18:54:46;;;;;;;9.38;8.75;;;;;;;;;;5112340;28;20027;-91
2024/01/04 18:57:13;;;;;;;11.55;10.80;;;;;;;;;;5111234;28;20031;-91
2024/01/04 18:59:40;;;;;;;10.35;9.68;;;;;;;;;;5111050;28;20104;-93
2024/01/04 19:02:06;;;;;;;9.50;8.90;;;;;;;;;;5111264;28;20032;-94
2024/01/04 19:04:32;;;;;;;9.27;8.57;;;;;;;;;;5110803;28;20028;-92
2024/01/04 19:07:00;;;;;;;11.75;10.95;;;;;;;;;;5116541;28;20030;-93
2024/01/04 19:09:26;;;;;;;13.43;12.57;;;;;;;;;;5110582;28;20028;-92
2024/01/04 19:11:52;;;;;;;10.27;9.43;;;;;;;;;;5111266;28;20114;-91
2024/01/04 19:14:19;;;;;;;11.13;10.38;;;;;;;;;;5110858;28;20544;-90